Flight Track Log - Related Links

Times and Time Zones

All times are in EDT time to prevent confusion due to time zone crossing. See the ERR707 flight status page for this flight to view local times or setup timezone preferences in your user account.

Time Position Orientation Groundspeed Altitude Reporting Facility
EDT Latitude Longitude Course Direction KTS MPH feet Rate Location/Type
Tue 10:55:08 PM 64.8667 -147.8667 234° Southwest 170 196 3,800  Level Anchorage Center
Tue 10:56:08 PM 64.8333 -147.9167 213° Southwest 160 184 5,200 1,339 Climbing Anchorage Center
Tue 10:57:09 PM 64.8000 -148.0000 227° Southwest 160 184 6,500 1,339 Climbing Anchorage Center
Tue 10:58:09 PM 64.7500 -148.0667 210° Southwest 170 196 7,900 1,300 Climbing Anchorage Center
Tue 10:59:00 PM 64.5138 -148.0560 216° Southwest  Level Estimated
Tue 10:59:09 PM 64.7167 -148.1167 213° Southwest 160 184 9,100  Level Anchorage Center
Tue 11:00:00 PM 64.4833 -148.1545 234° Southwest  Level FlightAware Approximate
Tue 11:00:10 PM 64.6833 -148.2000 227° Southwest 170 196 10,300  Level Anchorage Center
Tue 11:01:10 PM 64.6500 -148.2667 221° Southwest 180 207 11,300 1,050 Climbing Anchorage Center
Tue 11:02:10 PM 64.6167 -148.3333 221° Southwest 170 196 12,400 1,041 Climbing Anchorage Center
Tue 11:03:11 PM 64.5667 -148.4000 210° Southwest 170 196 13,400 992 Climbing Anchorage Center
Tue 11:04:11 PM 64.5333 -148.4500 213° Southwest 190 219 14,400 900 Climbing Anchorage Center
Tue 11:05:11 PM 64.4833 -148.4833 196° South 190 219 15,200 843 Climbing Anchorage Center
Tue 11:06:12 PM 64.4333 -148.5167 196° South 180 207 16,100 744 Climbing Anchorage Center
Tue 11:07:12 PM 64.3833 -148.5667 203° Southwest 180 207 16,700 843 Climbing Anchorage Center
Tue 11:08:13 PM 64.3333 -148.6000 196° South 180 207 17,800 942 Climbing Anchorage Center
Tue 11:09:13 PM 64.3000 -148.6333 203° Southwest 170 196 18,600 750 Climbing Anchorage Center
Tue 11:10:13 PM 64.2500 -148.6667 196° South 180 207 19,300 793 Climbing Anchorage Center
Tue 11:11:14 PM 64.2000 -148.7000 196° South 160 184 20,200 843 Climbing Anchorage Center
Tue 11:12:14 PM 64.1500 -148.7333 196° South 170 196 21,000 400 Climbing Anchorage Center
Tue 11:13:14 PM 64.1000 -148.7667 196° South 190 219 21,000  Level Anchorage Center
Tue 11:14:15 PM 64.0500 -148.8167 204° Southwest 200 230 21,000  Level Anchorage Center
Tue 11:15:15 PM 64.0000 -148.8500 196° South 190 219 21,000  Level Anchorage Center
Tue 11:16:15 PM 63.9500 -148.8833 196° South 200 230 21,000  Level Anchorage Center
Tue 11:17:16 PM 63.9000 -148.9333 204° Southwest 210 242 21,000  Level Anchorage Center
Tue 11:18:16 PM 63.8333 -148.9667 192° South 210 242 21,000  Level Anchorage Center
Tue 11:19:17 PM 63.7833 -149.0167 204° Southwest 210 242 21,000  Level Anchorage Center
Tue 11:20:17 PM 63.7333 -149.0500 196° South 200 230 21,000  Level Anchorage Center
Tue 11:21:17 PM 63.6833 -149.0833 196° South 200 230 21,000  Level Anchorage Center
Tue 11:22:18 PM 63.6333 -149.1167 196° South 200 230 21,000  Level Anchorage Center
Tue 11:23:18 PM 63.5667 -149.1667 198° South 210 242 21,000  Level Anchorage Center
Tue 11:24:18 PM 63.5167 -149.2000 197° South 190 219 21,000  Level Anchorage Center
Tue 11:25:19 PM 63.4500 -149.2500 199° South 200 230 21,000  Level Anchorage Center
Tue 11:26:19 PM 63.4000 -149.2833 197° South 210 242 21,000  Level Anchorage Center
Tue 11:27:19 PM 63.3500 -149.3167 197° South 200 230 21,000  Level Anchorage Center
Tue 11:28:20 PM 63.3000 -149.3667 204° Southwest 200 230 21,000  Level Anchorage Center
Tue 11:29:20 PM 63.2500 -149.4000 197° South 200 230 21,000  Level Anchorage Center
Tue 11:30:20 PM 63.2000 -149.4333 197° South 200 230 21,000  Level Anchorage Center
Tue 11:31:21 PM 63.1333 -149.4833 199° South 190 219 21,000  Level Anchorage Center
Tue 11:32:21 PM 63.0833 -149.5167 197° South 190 219 21,000  Level Anchorage Center
Tue 11:33:21 PM 63.0333 -149.5500 197° South 190 219 21,000  Level Anchorage Center
Tue 11:34:22 PM 62.9833 -149.5833 197° South 180 207 21,000  Level Anchorage Center
Tue 11:35:22 PM 62.9500 -149.6167 204° Southwest 180 207 21,000  Level Anchorage Center
Tue 11:36:23 PM 62.9000 -149.6500 197° South 180 207 21,000  Level Anchorage Center
Tue 11:37:23 PM 62.8500 -149.6667 189° South 170 196 21,000  Level Anchorage Center
Tue 11:38:23 PM 62.8000 -149.7167 205° Southwest 180 207 21,000  Level Anchorage Center
Tue 11:39:24 PM 62.7500 -149.7500 197° South 180 207 21,000  Level Anchorage Center
Tue 11:40:24 PM 62.7000 -149.7667 189° South 190 219 21,000  Level Anchorage Center
Tue 11:41:24 PM 62.6500 -149.8000 197° South 180 207 21,000  Level Anchorage Center
Tue 11:42:25 PM 62.6000 -149.8500 205° Southwest 170 196 21,000  Level Anchorage Center
Tue 11:43:25 PM 62.5500 -149.8667 189° South 190 219 21,000  Level Anchorage Center
Tue 11:44:25 PM 62.5000 -149.9000 197° South 180 207 21,000  Level Anchorage Center
Tue 11:45:26 PM 62.4500 -149.9333 197° South 170 196 21,000  Level Anchorage Center
Tue 11:46:26 PM 62.4000 -149.9667 197° South 190 219 21,000  Level Anchorage Center
Tue 11:47:26 PM 62.3500 -150.0000 197° South 180 207 21,000 -397 Level Anchorage Center
Tue 11:48:27 PM 62.3000 -150.0333 197° South 200 230 20,200 -793 Descending Anchorage Center
Tue 11:49:27 PM 62.2500 -150.0833 205° Southwest 210 242 19,400 -750 Descending Anchorage Center
Tue 11:50:27 PM 62.1833 -150.1167 193° South 220 253 18,700 -800 Descending Anchorage Center
Tue 11:51:27 PM 62.1333 -150.1500 197° South 220 253 17,800 -843 Descending Anchorage Center
Tue 11:52:28 PM 62.0667 -150.1833 193° South 220 253 17,000 -893 Descending Anchorage Center
Tue 11:53:28 PM 62.0000 -150.2333 199° South 220 253 16,000 -992 Descending Anchorage Center
Tue 11:54:29 PM 61.9500 -150.2667 197° South 220 253 15,000 -984 Descending Anchorage Center
Tue 11:56:00 PM 61.8735 -150.3177 198° South  Level FlightAware Approximate
Wed 12:03:00 AM 61.5247 -150.3256 157° South  Level FlightAware Approximate
Wed 12:04:00 AM 61.4760 -150.2822 157° South  Level FlightAware Approximate
Wed 12:05:00 AM 61.4274 -150.2390 157° South  Level FlightAware Approximate
Wed 12:06:00 AM 61.3788 -150.1954 154° Southeast  Level FlightAware Approximate
Wed 12:07:00 AM 61.3316 -150.1465 136° Southeast  Level FlightAware Approximate
Wed 12:08:00 AM 61.2866 -150.0926 159° South  Level FlightAware Approximate
Wed 12:09:00 AM 61.2373 -150.0531 159° South  Level FlightAware Approximate
Wed 12:10:00 AM 61.1895 -150.0061 154° Southeast  Level FlightAware Approximate
Wed 12:11:00 AM 61.1741 -149.9982 154° Southeast  Level Estimated
Wed 12:12:00 AM 61.1741 -149.9982 154° Southeast  Level Estimated
Wed 12:13:00 AM 61.1741 -149.9982 154° Southeast  Level Estimated
Wed 12:14:00 AM 61.1741 -149.9982 154° Southeast  Level Estimated
Wed 12:15:00 AM 61.1741 -149.9982 154° Southeast  Level Estimated
Wed 12:16:00 AM 61.1741 -149.9982 154° Southeast  Level Estimated
Wed 12:17:00 AM 61.1741 -149.9982 154° Southeast  Level Estimated
Wed 12:18:00 AM 61.1741 -149.9982 154° Southeast  Level Estimated
Wed 12:19:00 AM 61.1741 -149.9982 154° Southeast  Level Estimated
Wed 12:20:00 AM 61.1741 -149.9982 154° Southeast  Level Estimated
Wed 12:21:00 AM 61.1741 -149.9982 154° Southeast  Level Estimated
Wed 12:22:00 AM 61.1741 -149.9982 154° Southeast  Level Estimated

Login

Don't have an account? Register now (free) for customized features, flight alerts, and more!